sensor_id;sensor_type;location;lat;lon;timestamp;pressure;altitude;pressure_sealevel;temperature;humidity
14689;BME280;7432;48.728;9.154;2023-12-20T00:01:58;143150.16;;;5.31;97.85
14689;BME280;7432;48.728;9.154;2023-12-20T00:04:24;143161.00;;;5.35;97.79
14689;BME280;7432;48.728;9.154;2023-12-20T00:06:52;143153.81;;;5.32;97.42
14689;BME280;7432;48.728;9.154;2023-12-20T00:09:18;143153.81;;;5.32;98.03
14689;BME280;7432;48.728;9.154;2023-12-20T00:11:44;143169.44;;;5.39;96.94
14689;BME280;7432;48.728;9.154;2023-12-20T00:14:11;143159.81;;;5.35;97.10
14689;BME280;7432;48.728;9.154;2023-12-20T00:16:37;143148.97;;;5.30;98.06
14689;BME280;7432;48.728;9.154;2023-12-20T00:19:04;143158.63;;;5.34;97.15
14689;BME280;7432;48.728;9.154;2023-12-20T00:21:30;143168.22;;;5.38;98.01
14689;BME280;7432;48.728;9.154;2023-12-20T00:23:58;143175.47;;;5.42;97.41
14689;BME280;7432;48.728;9.154;2023-12-20T00:26:24;143170.66;;;5.39;97.99
14689;BME280;7432;48.728;9.154;2023-12-20T00:28:51;143176.69;;;5.42;97.58
14689;BME280;7432;48.728;9.154;2023-12-20T00:31:17;143164.63;;;5.37;98.80
14689;BME280;7432;48.728;9.154;2023-12-20T00:33:43;143153.81;;;5.32;99.91
14689;BME280;7432;48.728;9.154;2023-12-20T00:36:11;143159.81;;;5.35;99.28
14689;BME280;7432;48.728;9.154;2023-12-20T00:38:37;143141.72;;;5.27;100.00
14689;BME280;7432;48.728;9.154;2023-12-20T00:41:05;143147.78;;;5.30;100.00
14689;BME280;7432;48.728;9.154;2023-12-20T00:43:31;143141.72;;;5.27;100.00
14689;BME280;7432;48.728;9.154;2023-12-20T00:45:58;143115.25;;;5.16;100.00
14689;BME280;7432;48.728;9.154;2023-12-20T00:48:25;143103.19;;;5.11;100.00
14689;BME280;7432;48.728;9.154;2023-12-20T00:50:52;143120.06;;;5.18;100.00
14689;BME280;7432;48.728;9.154;2023-12-20T00:53:18;143112.84;;;5.15;100.00
14689;BME280;7432;48.728;9.154;2023-12-20T00:55:45;143105.59;;;5.12;100.00
14689;BME280;7432;48.728;9.154;2023-12-20T00:58:12;143098.38;;;5.09;100.00
14689;BME280;7432;48.728;9.154;2023-12-20T01:00:40;143089.94;;;5.06;100.00
14689;BME280;7432;48.728;9.154;2023-12-20T01:03:07;143089.94;;;5.06;100.00
14689;BME280;7432;48.728;9.154;2023-12-20T01:05:33;143083.91;;;5.03;100.00
14689;BME280;7432;48.728;9.154;2023-12-20T01:08:00;143083.91;;;5.03;100.00
14689;BME280;7432;48.728;9.154;2023-12-20T01:10:28;143086.34;;;5.04;100.00
14689;BME280;7432;48.728;9.154;2023-12-20T01:12:55;143092.34;;;5.07;100.00
14689;BME280;7432;48.728;9.154;2023-12-20T01:15:22;143082.69;;;5.03;100.00
14689;BME280;7432;48.728;9.154;2023-12-20T01:17:49;143087.53;;;5.05;100.00
14689;BME280;7432;48.728;9.154;2023-12-20T01:20:15;143071.88;;;4.98;100.00
14689;BME280;7432;48.728;9.154;2023-12-20T01:22:42;143074.28;;;4.99;100.00
14689;BME280;7432;48.728;9.154;2023-12-20T01:25:11;143044.16;;;4.87;100.00
14689;BME280;7432;48.728;9.154;2023-12-20T01:27:37;143047.78;;;4.88;100.00
14689;BME280;7432;48.728;9.154;2023-12-20T01:30:04;143062.25;;;4.94;100.00
14689;BME280;7432;48.728;9.154;2023-12-20T01:32:32;143083.91;;;5.03;100.00
14689;BME280;7432;48.728;9.154;2023-12-20T01:34:59;143067.06;;;4.96;100.00
14689;BME280;7432;48.728;9.154;2023-12-20T01:37:25;143050.16;;;4.89;100.00
14689;BME280;7432;48.728;9.154;2023-12-20T01:39:51;143045.38;;;4.87;100.00
14689;BME280;7432;48.728;9.154;2023-12-20T01:42:18;143041.78;;;4.86;100.00
14689;BME280;7432;48.728;9.154;2023-12-20T01:44:44;143051.38;;;4.90;100.00
14689;BME280;7432;48.728;9.154;2023-12-20T01:47:11;143049.00;;;4.89;100.00
14689;BME280;7432;48.728;9.154;2023-12-20T01:49:39;143038.13;;;4.84;100.00
14689;BME280;7432;48.728;9.154;2023-12-20T01:52:06;143027.31;;;4.79;100.00
14689;BME280;7432;48.728;9.154;2023-12-20T01:54:34;143032.13;;;4.82;100.00
14689;BME280;7432;48.728;9.154;2023-12-20T01:57:01;143030.91;;;4.81;100.00
14689;BME280;7432;48.728;9.154;2023-12-20T01:59:28;143039.34;;;4.85;100.00
14689;BME280;7432;48.728;9.154;2023-12-20T02:01:55;143040.56;;;4.85;100.00
14689;BME280;7432;48.728;9.154;2023-12-20T02:04:21;143022.50;;;4.77;100.00
14689;BME280;7432;48.728;9.154;2023-12-20T02:06:52;143030.91;;;4.81;100.00
14689;BME280;7432;48.728;9.154;2023-12-20T02:09:19;143043.00;;;4.86;100.00
14689;BME280;7432;48.728;9.154;2023-12-20T02:11:45;143036.94;;;4.84;100.00
14689;BME280;7432;48.728;9.154;2023-12-20T02:14:12;143034.53;;;4.83;100.00
14689;BME280;7432;48.728;9.154;2023-12-20T02:16:38;143032.13;;;4.82;100.00
14689;BME280;7432;48.728;9.154;2023-12-20T02:19:13;143032.13;;;4.82;100.00
14689;BME280;7432;48.728;9.154;2023-12-20T02:21:40;143034.53;;;4.83;100.00
14689;BME280;7432;48.728;9.154;2023-12-20T02:24:07;143056.25;;;4.92;100.00
14689;BME280;7432;48.728;9.154;2023-12-20T02:26:33;143070.66;;;4.98;100.00
14689;BME280;7432;48.728;9.154;2023-12-20T02:29:00;143063.41;;;4.95;100.00
14689;BME280;7432;48.728;9.154;2023-12-20T02:31:27;143064.63;;;4.95;100.00
14689;BME280;7432;48.728;9.154;2023-12-20T02:33:53;143055.03;;;4.91;100.00
14689;BME280;7432;48.728;9.154;2023-12-20T02:36:20;143059.81;;;4.93;100.00
14689;BME280;7432;48.728;9.154;2023-12-20T02:38:47;143065.84;;;4.96;100.00
14689;BME280;7432;48.728;9.154;2023-12-20T02:41:15;143058.63;;;4.93;100.00
14689;BME280;7432;48.728;9.154;2023-12-20T02:43:43;143063.41;;;4.95;100.00
14689;BME280;7432;48.728;9.154;2023-12-20T02:46:09;143063.41;;;4.95;100.00
14689;BME280;7432;48.728;9.154;2023-12-20T02:48:35;143063.41;;;4.95;100.00
14689;BME280;7432;48.728;9.154;2023-12-20T02:51:02;143059.81;;;4.93;100.00
14689;BME280;7432;48.728;9.154;2023-12-20T02:53:28;143074.28;;;4.99;100.00
14689;BME280;7432;48.728;9.154;2023-12-20T02:55:56;143063.41;;;4.95;100.00
14689;BME280;7432;48.728;9.154;2023-12-20T02:58:23;143039.34;;;4.85;100.00
14689;BME280;7432;48.728;9.154;2023-12-20T03:00:49;143023.72;;;4.78;100.00
14689;BME280;7432;48.728;9.154;2023-12-20T03:03:15;143038.13;;;4.84;100.00
14689;BME280;7432;48.728;9.154;2023-12-20T03:05:42;143040.56;;;4.85;100.00
14689;BME280;7432;48.728;9.154;2023-12-20T03:08:08;143053.81;;;4.91;100.00
14689;BME280;7432;48.728;9.154;2023-12-20T03:10:35;143034.53;;;4.83;100.00
14689;BME280;7432;48.728;9.154;2023-12-20T03:13:03;143065.84;;;4.96;100.00
14689;BME280;7432;48.728;9.154;2023-12-20T03:15:29;143064.63;;;4.95;100.00
14689;BME280;7432;48.728;9.154;2023-12-20T03:17:56;143056.25;;;4.92;100.00
14689;BME280;7432;48.728;9.154;2023-12-20T03:20:24;143055.03;;;4.91;100.00
14689;BME280;7432;48.728;9.154;2023-12-20T03:22:51;143049.00;;;4.89;100.00
14689;BME280;7432;48.728;9.154;2023-12-20T03:25:17;143057.41;;;4.92;100.00
14689;BME280;7432;48.728;9.154;2023-12-20T03:27:43;143056.25;;;4.92;100.00
14689;BME280;7432;48.728;9.154;2023-12-20T03:30:12;143056.25;;;4.92;100.00
14689;BME280;7432;48.728;9.154;2023-12-20T03:32:38;143059.81;;;4.93;100.00
14689;BME280;7432;48.728;9.154;2023-12-20T03:35:05;143069.50;;;4.97;100.00
14689;BME280;7432;48.728;9.154;2023-12-20T03:37:32;143075.50;;;5.00;100.00
14689;BME280;7432;48.728;9.154;2023-12-20T03:39:58;143067.06;;;4.96;100.00
14689;BME280;7432;48.728;9.154;2023-12-20T03:42:25;143083.91;;;5.03;100.00
14689;BME280;7432;48.728;9.154;2023-12-20T03:44:51;143069.50;;;4.97;100.00
14689;BME280;7432;48.728;9.154;2023-12-20T03:47:19;143052.59;;;4.90;100.00
14689;BME280;7432;48.728;9.154;2023-12-20T03:49:45;143074.28;;;4.99;100.00
14689;BME280;7432;48.728;9.154;2023-12-20T03:52:11;143071.88;;;4.98;100.00
14689;BME280;7432;48.728;9.154;2023-12-20T03:54:38;143071.88;;;4.98;100.00
14689;BME280;7432;48.728;9.154;2023-12-20T03:57:04;143063.41;;;4.95;100.00
14689;BME280;7432;48.728;9.154;2023-12-20T03:59:34;143041.78;;;4.86;100.00
14689;BME280;7432;48.728;9.154;2023-12-20T04:02:01;143036.94;;;4.84;100.00
14689;BME280;7432;48.728;9.154;2023-12-20T04:04:29;143049.00;;;4.89;100.00
14689;BME280;7432;48.728;9.154;2023-12-20T04:06:55;143032.13;;;4.82;100.00
14689;BME280;7432;48.728;9.154;2023-12-20T04:09:21;143029.75;;;4.81;100.00
14689;BME280;7432;48.728;9.154;2023-12-20T04:11:48;143026.09;;;4.79;100.00
14689;BME280;7432;48.728;9.154;2023-12-20T04:14:14;143006.84;;;4.71;100.00
14689;BME280;7432;48.728;9.154;2023-12-20T04:16:40;143006.84;;;4.71;100.00
14689;BME280;7432;48.728;9.154;2023-12-20T04:19:07;143027.31;;;4.79;100.00
14689;BME280;7432;48.728;9.154;2023-12-20T04:21:35;143008.03;;;4.71;100.00
14689;BME280;7432;48.728;9.154;2023-12-20T04:24:01;143003.25;;;4.69;100.00
14689;BME280;7432;48.728;9.154;2023-12-20T04:26:28;143011.63;;;4.73;100.00
14689;BME280;7432;48.728;9.154;2023-12-20T04:28:54;142994.81;;;4.66;100.00
14689;BME280;7432;48.728;9.154;2023-12-20T04:31:21;142997.22;;;4.67;100.00
14689;BME280;7432;48.728;9.154;2023-12-20T04:33:47;143009.25;;;4.72;100.00
14689;BME280;7432;48.728;9.154;2023-12-20T04:36:13;143005.63;;;4.70;100.00
14689;BME280;7432;48.728;9.154;2023-12-20T04:38:41;142994.81;;;4.66;100.00
14689;BME280;7432;48.728;9.154;2023-12-20T04:41:07;142997.22;;;4.67;100.00
14689;BME280;7432;48.728;9.154;2023-12-20T04:43:34;142999.59;;;4.68;100.00
14689;BME280;7432;48.728;9.154;2023-12-20T04:46:00;142991.22;;;4.64;100.00
14689;BME280;7432;48.728;9.154;2023-12-20T04:48:26;142993.59;;;4.65;100.00
14689;BME280;7432;48.728;9.154;2023-12-20T04:50:53;142986.34;;;4.62;100.00
14689;BME280;7432;48.728;9.154;2023-12-20T04:53:19;142985.16;;;4.62;100.00
14689;BME280;7432;48.728;9.154;2023-12-20T04:55:47;142973.09;;;4.57;100.00
14689;BME280;7432;48.728;9.154;2023-12-20T04:58:13;142952.63;;;4.48;100.00
14689;BME280;7432;48.728;9.154;2023-12-20T05:00:39;142969.53;;;4.55;100.00
14689;BME280;7432;48.728;9.154;2023-12-20T05:03:06;142982.75;;;4.61;100.00
14689;BME280;7432;48.728;9.154;2023-12-20T05:05:33;142967.09;;;4.54;100.00
14689;BME280;7432;48.728;9.154;2023-12-20T05:07:59;142967.09;;;4.54;100.00
14689;BME280;7432;48.728;9.154;2023-12-20T05:10:26;142974.31;;;4.57;100.00
14689;BME280;7432;48.728;9.154;2023-12-20T05:12:54;142975.53;;;4.58;100.00
14689;BME280;7432;48.728;9.154;2023-12-20T05:15:20;142983.97;;;4.61;100.00
14689;BME280;7432;48.728;9.154;2023-12-20T05:17:47;142986.34;;;4.62;100.00
14689;BME280;7432;48.728;9.154;2023-12-20T05:20:13;143000.81;;;4.68;100.00
14689;BME280;7432;48.728;9.154;2023-12-20T05:22:40;142993.59;;;4.65;100.00
14689;BME280;7432;48.728;9.154;2023-12-20T05:25:07;142987.56;;;4.63;100.00
14689;BME280;7432;48.728;9.154;2023-12-20T05:27:33;142988.78;;;4.63;100.00
14689;BME280;7432;48.728;9.154;2023-12-20T05:30:01;142979.13;;;4.59;100.00
14689;BME280;7432;48.728;9.154;2023-12-20T05:32:29;142998.38;;;4.67;100.00
14689;BME280;7432;48.728;9.154;2023-12-20T05:34:56;142993.59;;;4.65;100.00
14689;BME280;7432;48.728;9.154;2023-12-20T05:37:22;142987.56;;;4.63;100.00
14689;BME280;7432;48.728;9.154;2023-12-20T05:39:49;142994.81;;;4.66;100.00
14689;BME280;7432;48.728;9.154;2023-12-20T05:42:15;142997.22;;;4.67;100.00
14689;BME280;7432;48.728;9.154;2023-12-20T05:44:41;142998.38;;;4.67;100.00
14689;BME280;7432;48.728;9.154;2023-12-20T05:47:09;143002.03;;;4.69;100.00
14689;BME280;7432;48.728;9.154;2023-12-20T05:49:36;143009.25;;;4.72;100.00
14689;BME280;7432;48.728;9.154;2023-12-20T05:52:02;143009.25;;;4.72;100.00
14689;BME280;7432;48.728;9.154;2023-12-20T05:54:29;142992.38;;;4.65;100.00
14689;BME280;7432;48.728;9.154;2023-12-20T05:56:55;142985.16;;;4.62;100.00
14689;BME280;7432;48.728;9.154;2023-12-20T05:59:21;142992.38;;;4.65;100.00
14689;BME280;7432;48.728;9.154;2023-12-20T06:01:48;142996.00;;;4.66;100.00
14689;BME280;7432;48.728;9.154;2023-12-20T06:04:15;142993.59;;;4.65;100.00
14689;BME280;7432;48.728;9.154;2023-12-20T06:06:42;142992.38;;;4.65;100.00
14689;BME280;7432;48.728;9.154;2023-12-20T06:09:08;142993.59;;;4.65;100.00
14689;BME280;7432;48.728;9.154;2023-12-20T06:11:35;143000.81;;;4.68;100.00
14689;BME280;7432;48.728;9.154;2023-12-20T06:14:01;142996.00;;;4.66;100.00
14689;BME280;7432;48.728;9.154;2023-12-20T06:16:28;142987.56;;;4.63;100.00
14689;BME280;7432;48.728;9.154;2023-12-20T06:18:54;142997.22;;;4.67;100.00
14689;BME280;7432;48.728;9.154;2023-12-20T06:21:22;142985.16;;;4.62;100.00
14689;BME280;7432;48.728;9.154;2023-12-20T06:23:48;142981.56;;;4.60;100.00
14689;BME280;7432;48.728;9.154;2023-12-20T06:26:14;142985.16;;;4.62;100.00
14689;BME280;7432;48.728;9.154;2023-12-20T06:28:41;142992.38;;;4.65;100.00
14689;BME280;7432;48.728;9.154;2023-12-20T06:31:07;142987.56;;;4.63;100.00
14689;BME280;7432;48.728;9.154;2023-12-20T06:33:34;142980.34;;;4.60;100.00
14689;BME280;7432;48.728;9.154;2023-12-20T06:36:00;142996.00;;;4.66;100.00
14689;BME280;7432;48.728;9.154;2023-12-20T06:38:28;143002.03;;;4.69;100.00
14689;BME280;7432;48.728;9.154;2023-12-20T06:40:54;142997.22;;;4.67;100.00
14689;BME280;7432;48.728;9.154;2023-12-20T06:43:22;142994.81;;;4.66;100.00
14689;BME280;7432;48.728;9.154;2023-12-20T06:45:48;143004.41;;;4.70;100.00
14689;BME280;7432;48.728;9.154;2023-12-20T06:48:16;143000.81;;;4.68;100.00
14689;BME280;7432;48.728;9.154;2023-12-20T06:50:42;143009.25;;;4.72;100.00
14689;BME280;7432;48.728;9.154;2023-12-20T06:53:08;142996.00;;;4.66;100.00
14689;BME280;7432;48.728;9.154;2023-12-20T06:55:36;142993.59;;;4.65;100.00
14689;BME280;7432;48.728;9.154;2023-12-20T06:58:03;143008.03;;;4.71;100.00
14689;BME280;7432;48.728;9.154;2023-12-20T07:00:30;143009.25;;;4.72;100.00
14689;BME280;7432;48.728;9.154;2023-12-20T07:02:56;142998.38;;;4.67;100.00
14689;BME280;7432;48.728;9.154;2023-12-20T07:05:22;143009.25;;;4.72;100.00
14689;BME280;7432;48.728;9.154;2023-12-20T07:07:48;143003.25;;;4.69;100.00
14689;BME280;7432;48.728;9.154;2023-12-20T07:10:14;143006.84;;;4.71;100.00
14689;BME280;7432;48.728;9.154;2023-12-20T07:12:42;142997.22;;;4.67;100.00
14689;BME280;7432;48.728;9.154;2023-12-20T07:15:09;143003.25;;;4.69;100.00
14689;BME280;7432;48.728;9.154;2023-12-20T07:17:36;143006.84;;;4.71;100.00
14689;BME280;7432;48.728;9.154;2023-12-20T07:20:03;143002.03;;;4.69;100.00
14689;BME280;7432;48.728;9.154;2023-12-20T07:22:29;142999.59;;;4.68;100.00
14689;BME280;7432;48.728;9.154;2023-12-20T07:24:57;143011.63;;;4.73;100.00
14689;BME280;7432;48.728;9.154;2023-12-20T07:27:23;143027.31;;;4.79;100.00
14689;BME280;7432;48.728;9.154;2023-12-20T07:29:51;143022.50;;;4.77;100.00
14689;BME280;7432;48.728;9.154;2023-12-20T07:32:18;143049.00;;;4.89;100.00
14689;BME280;7432;48.728;9.154;2023-12-20T07:34:44;143052.59;;;4.90;100.00
14689;BME280;7432;48.728;9.154;2023-12-20T07:37:10;143047.78;;;4.88;100.00
14689;BME280;7432;48.728;9.154;2023-12-20T07:39:37;143067.06;;;4.96;100.00
14689;BME280;7432;48.728;9.154;2023-12-20T07:42:04;143044.16;;;4.87;100.00
14689;BME280;7432;48.728;9.154;2023-12-20T07:44:30;143029.75;;;4.81;100.00
14689;BME280;7432;48.728;9.154;2023-12-20T07:46:58;143039.34;;;4.85;100.00
14689;BME280;7432;48.728;9.154;2023-12-20T07:49:23;142997.22;;;4.67;100.00
14689;BME280;7432;48.728;9.154;2023-12-20T07:51:50;142992.38;;;4.65;100.00
14689;BME280;7432;48.728;9.154;2023-12-20T07:54:16;142979.13;;;4.59;100.00
14689;BME280;7432;48.728;9.154;2023-12-20T07:56:42;143000.81;;;4.68;100.00
14689;BME280;7432;48.728;9.154;2023-12-20T07:59:09;143002.03;;;4.69;100.00
14689;BME280;7432;48.728;9.154;2023-12-20T08:01:35;142983.97;;;4.61;100.00
14689;BME280;7432;48.728;9.154;2023-12-20T08:04:03;142977.97;;;4.59;100.00
14689;BME280;7432;48.728;9.154;2023-12-20T08:06:30;142986.34;;;4.62;100.00
14689;BME280;7432;48.728;9.154;2023-12-20T08:08:57;142987.56;;;4.63;100.00
14689;BME280;7432;48.728;9.154;2023-12-20T08:11:23;142994.81;;;4.66;100.00
14689;BME280;7432;48.728;9.154;2023-12-20T08:13:49;142994.81;;;4.66;100.00
14689;BME280;7432;48.728;9.154;2023-12-20T08:16:16;142990.00;;;4.64;100.00
14689;BME280;7432;48.728;9.154;2023-12-20T08:18:42;142991.22;;;4.64;100.00
14689;BME280;7432;48.728;9.154;2023-12-20T08:21:10;143005.63;;;4.70;100.00
14689;BME280;7432;48.728;9.154;2023-12-20T08:23:37;143006.84;;;4.71;100.00
14689;BME280;7432;48.728;9.154;2023-12-20T08:26:04;143018.88;;;4.76;100.00
14689;BME280;7432;48.728;9.154;2023-12-20T08:28:31;142991.22;;;4.64;100.00
14689;BME280;7432;48.728;9.154;2023-12-20T08:30:57;142970.72;;;4.56;100.00
14689;BME280;7432;48.728;9.154;2023-12-20T08:33:24;142991.22;;;4.64;100.00
14689;BME280;7432;48.728;9.154;2023-12-20T08:35:50;142981.56;;;4.60;100.00
14689;BME280;7432;48.728;9.154;2023-12-20T08:38:18;142996.00;;;4.66;100.00
14689;BME280;7432;48.728;9.154;2023-12-20T08:40:44;142976.75;;;4.58;100.00
14689;BME280;7432;48.728;9.154;2023-12-20T08:43:11;143009.25;;;4.72;100.00
14689;BME280;7432;48.728;9.154;2023-12-20T08:45:37;143014.06;;;4.74;100.00
14689;BME280;7432;48.728;9.154;2023-12-20T08:48:04;143034.53;;;4.83;100.00
14689;BME280;7432;48.728;9.154;2023-12-20T08:50:31;143050.16;;;4.89;100.00
14689;BME280;7432;48.728;9.154;2023-12-20T08:52:57;143053.81;;;4.91;100.00
14689;BME280;7432;48.728;9.154;2023-12-20T08:55:25;143034.53;;;4.83;100.00
14689;BME280;7432;48.728;9.154;2023-12-20T08:57:52;143010.47;;;4.72;100.00
14689;BME280;7432;48.728;9.154;2023-12-20T09:00:18;142979.13;;;4.59;100.00
14689;BME280;7432;48.728;9.154;2023-12-20T09:02:46;142962.28;;;4.52;100.00
14689;BME280;7432;48.728;9.154;2023-12-20T09:05:12;142940.59;;;4.43;100.00
14689;BME280;7432;48.728;9.154;2023-12-20T09:07:38;142922.56;;;4.36;100.00
14689;BME280;7432;48.728;9.154;2023-12-20T09:10:05;142911.75;;;4.31;100.00
14689;BME280;7432;48.728;9.154;2023-12-20T09:12:33;142887.63;;;4.21;100.00
14689;BME280;7432;48.728;9.154;2023-12-20T09:15:00;142903.31;;;4.28;99.56
14689;BME280;7432;48.728;9.154;2023-12-20T09:17:28;142908.09;;;4.30;99.36
14689;BME280;7432;48.728;9.154;2023-12-20T09:19:53;142914.13;;;4.32;99.82
14689;BME280;7432;48.728;9.154;2023-12-20T09:22:19;142926.16;;;4.37;98.97
14689;BME280;7432;48.728;9.154;2023-12-20T09:24:46;142934.59;;;4.41;98.67
14689;BME280;7432;48.728;9.154;2023-12-20T09:27:13;142946.63;;;4.46;97.02
14689;BME280;7432;48.728;9.154;2023-12-20T09:29:40;142952.63;;;4.48;98.02
14689;BME280;7432;48.728;9.154;2023-12-20T09:32:07;142953.84;;;4.49;98.59
14689;BME280;7432;48.728;9.154;2023-12-20T09:34:33;142967.09;;;4.54;97.93
14689;BME280;7432;48.728;9.154;2023-12-20T09:36:59;142959.88;;;4.51;97.43
14689;BME280;7432;48.728;9.154;2023-12-20T09:39:26;142969.53;;;4.55;97.00
14689;BME280;7432;48.728;9.154;2023-12-20T09:42:00;142968.31;;;4.55;97.63
14689;BME280;7432;48.728;9.154;2023-12-20T09:44:27;142977.97;;;4.59;97.98
14689;BME280;7432;48.728;9.154;2023-12-20T09:46:55;142996.00;;;4.66;98.06
14689;BME280;7432;48.728;9.154;2023-12-20T09:49:22;142991.22;;;4.64;98.01
14689;BME280;7432;48.728;9.154;2023-12-20T09:51:50;142993.59;;;4.65;96.64
14689;BME280;7432;48.728;9.154;2023-12-20T09:54:17;142996.00;;;4.66;96.77
14689;BME280;7432;48.728;9.154;2023-12-20T09:56:44;142983.97;;;4.61;96.71
14689;BME280;7432;48.728;9.154;2023-12-20T09:59:11;142981.56;;;4.60;97.01
14689;BME280;7432;48.728;9.154;2023-12-20T10:01:38;143016.50;;;4.75;95.60
14689;BME280;7432;48.728;9.154;2023-12-20T10:04:08;143002.03;;;4.69;91.85
14689;BME280;7432;48.728;9.154;2023-12-20T10:06:37;143026.09;;;4.79;92.23
14689;BME280;7432;48.728;9.154;2023-12-20T10:09:04;143021.28;;;4.77;93.16
14689;BME280;7432;48.728;9.154;2023-12-20T10:11:31;143032.13;;;4.82;90.17
14689;BME280;7432;48.728;9.154;2023-12-20T10:13:59;143043.00;;;4.86;88.82
14689;BME280;7432;48.728;9.154;2023-12-20T10:16:26;143087.53;;;5.05;89.32
14689;BME280;7432;48.728;9.154;2023-12-20T10:18:52;143197.16;;;5.51;88.27
14689;BME280;7432;48.728;9.154;2023-12-20T10:21:20;143288.81;;;5.89;86.54
14689;BME280;7432;48.728;9.154;2023-12-20T10:23:48;143293.63;;;5.91;83.34
14689;BME280;7432;48.728;9.154;2023-12-20T10:26:19;143294.84;;;5.91;85.30
14689;BME280;7432;48.728;9.154;2023-12-20T10:28:46;143297.25;;;5.92;85.88
14689;BME280;7432;48.728;9.154;2023-12-20T10:31:26;143271.91;;;5.82;84.35
14689;BME280;7432;48.728;9.154;2023-12-20T10:33:52;143262.25;;;5.78;85.94
14689;BME280;7432;48.728;9.154;2023-12-20T10:36:19;143271.91;;;5.82;83.87
14689;BME280;7432;48.728;9.154;2023-12-20T10:38:48;143277.94;;;5.84;84.84
14689;BME280;7432;48.728;9.154;2023-12-20T10:41:19;143279.16;;;5.85;84.58
14689;BME280;7432;48.728;9.154;2023-12-20T10:43:50;143284.00;;;5.87;84.20
14689;BME280;7432;48.728;9.154;2023-12-20T10:46:17;143282.78;;;5.86;83.34
14689;BME280;7432;48.728;9.154;2023-12-20T10:48:46;143268.28;;;5.80;83.29
14689;BME280;7432;48.728;9.154;2023-12-20T10:51:14;143244.19;;;5.70;85.63
14689;BME280;7432;48.728;9.154;2023-12-20T10:53:43;143284.00;;;5.87;85.17
14689;BME280;7432;48.728;9.154;2023-12-20T10:56:15;143294.84;;;5.91;83.86
14689;BME280;7432;48.728;9.154;2023-12-20T10:58:43;143282.78;;;5.86;80.88
14689;BME280;7432;48.728;9.154;2023-12-20T11:01:11;143274.28;;;5.83;83.17
14689;BME280;7432;48.728;9.154;2023-12-20T11:03:43;143267.06;;;5.80;82.89
14689;BME280;7432;48.728;9.154;2023-12-20T11:06:15;143284.00;;;5.87;83.59
14689;BME280;7432;48.728;9.154;2023-12-20T11:08:49;143268.28;;;5.80;83.60
14689;BME280;7432;48.728;9.154;2023-12-20T11:11:25;143253.78;;;5.74;83.66
14689;BME280;7432;48.728;9.154;2023-12-20T11:13:56;143263.47;;;5.78;85.04
14689;BME280;7432;48.728;9.154;2023-12-20T11:16:24;143270.69;;;5.81;85.86
14689;BME280;7432;48.728;9.154;2023-12-20T11:18:50;143279.16;;;5.85;83.71
14689;BME280;7432;48.728;9.154;2023-12-20T11:21:17;143256.22;;;5.75;82.81
14689;BME280;7432;48.728;9.154;2023-12-20T11:23:44;143232.13;;;5.65;82.07
14689;BME280;7432;48.728;9.154;2023-12-20T11:26:10;143230.91;;;5.65;83.48
14689;BME280;7432;48.728;9.154;2023-12-20T11:28:38;143232.13;;;5.65;82.06
14689;BME280;7432;48.728;9.154;2023-12-20T11:31:05;143236.94;;;5.67;81.59
14689;BME280;7432;48.728;9.154;2023-12-20T11:33:36;143240.53;;;5.69;79.93
14689;BME280;7432;48.728;9.154;2023-12-20T11:36:03;143222.47;;;5.61;80.35
14689;BME280;7432;48.728;9.154;2023-12-20T11:38:38;143216.44;;;5.59;80.27
14689;BME280;7432;48.728;9.154;2023-12-20T11:41:05;143230.91;;;5.65;79.76
14689;BME280;7432;48.728;9.154;2023-12-20T11:43:34;143244.19;;;5.70;79.42
14689;BME280;7432;48.728;9.154;2023-12-20T11:46:07;143232.13;;;5.65;79.24
14689;BME280;7432;48.728;9.154;2023-12-20T11:48:35;143247.78;;;5.72;78.95
14689;BME280;7432;48.728;9.154;2023-12-20T11:51:01;143239.31;;;5.68;78.00
14689;BME280;7432;48.728;9.154;2023-12-20T11:53:28;143261.03;;;5.77;76.47
14689;BME280;7432;48.728;9.154;2023-12-20T11:55:56;143235.72;;;5.67;78.44
14689;BME280;7432;48.728;9.154;2023-12-20T11:58:22;143220.03;;;5.60;77.90
14689;BME280;7432;48.728;9.154;2023-12-20T12:00:49;143211.63;;;5.57;76.46
14689;BME280;7432;48.728;9.154;2023-12-20T12:03:18;143182.69;;;5.45;77.54
14689;BME280;7432;48.728;9.154;2023-12-20T12:05:47;143173.09;;;5.41;78.59
14689;BME280;7432;48.728;9.154;2023-12-20T12:08:13;143185.13;;;5.46;79.60
14689;BME280;7432;48.728;9.154;2023-12-20T12:10:40;143171.88;;;5.40;79.04
14689;BME280;7432;48.728;9.154;2023-12-20T12:13:06;143170.66;;;5.39;78.94
14689;BME280;7432;48.728;9.154;2023-12-20T12:15:33;143167.06;;;5.38;80.24
14689;BME280;7432;48.728;9.154;2023-12-20T12:17:59;143192.38;;;5.49;79.84
14689;BME280;7432;48.728;9.154;2023-12-20T12:20:27;143177.91;;;5.43;78.18
14689;BME280;7432;48.728;9.154;2023-12-20T12:22:57;143209.22;;;5.56;78.93
14689;BME280;7432;48.728;9.154;2023-12-20T12:25:24;143233.31;;;5.66;78.39
14689;BME280;7432;48.728;9.154;2023-12-20T12:27:51;143240.53;;;5.69;78.95
14689;BME280;7432;48.728;9.154;2023-12-20T12:30:17;143263.47;;;5.78;77.68
14689;BME280;7432;48.728;9.154;2023-12-20T12:32:44;143265.84;;;5.79;78.69
14689;BME280;7432;48.728;9.154;2023-12-20T12:35:10;143270.69;;;5.81;79.58
14689;BME280;7432;48.728;9.154;2023-12-20T12:37:39;143250.19;;;5.73;78.15
14689;BME280;7432;48.728;9.154;2023-12-20T12:40:09;143279.16;;;5.85;76.60
14689;BME280;7432;48.728;9.154;2023-12-20T12:42:36;143273.06;;;5.82;79.54
14689;BME280;7432;48.728;9.154;2023-12-20T12:45:02;143277.94;;;5.84;78.81
14689;BME280;7432;48.728;9.154;2023-12-20T12:47:29;143262.25;;;5.78;77.24
14689;BME280;7432;48.728;9.154;2023-12-20T12:49:56;143245.38;;;5.71;79.04
14689;BME280;7432;48.728;9.154;2023-12-20T12:52:23;143252.59;;;5.74;79.28
14689;BME280;7432;48.728;9.154;2023-12-20T12:54:50;143256.22;;;5.75;77.95
14689;BME280;7432;48.728;9.154;2023-12-20T12:57:17;143279.16;;;5.85;79.07
14689;BME280;7432;48.728;9.154;2023-12-20T12:59:43;143280.34;;;5.85;79.34
14689;BME280;7432;48.728;9.154;2023-12-20T13:02:11;143286.38;;;5.88;79.26
14689;BME280;7432;48.728;9.154;2023-12-20T13:04:38;143277.94;;;5.84;78.44